sensor_id;sensor_type;location;lat;lon;timestamp;pressure;altitude;pressure_sealevel;temperature;humidity
3294;BME280;1659;51.470;6.770;2023-04-10T00:01:48;102066.25;;;9.23;62.16
3294;BME280;1659;51.470;6.770;2023-04-10T00:04:15;102061.00;;;9.24;61.96
3294;BME280;1659;51.470;6.770;2023-04-10T00:06:41;102066.25;;;9.23;62.16
3294;BME280;1659;51.470;6.770;2023-04-10T00:09:10;102053.94;;;9.22;62.05
3294;BME280;1659;51.470;6.770;2023-04-10T00:11:36;102055.69;;;9.20;61.98
3294;BME280;1659;51.470;6.770;2023-04-10T00:14:03;102045.97;;;9.17;62.05
3294;BME280;1659;51.470;6.770;2023-04-10T00:16:29;102038.06;;;9.19;62.07
3294;BME280;1659;51.470;6.770;2023-04-10T00:18:56;102031.06;;;9.18;61.88
3294;BME280;1659;51.470;6.770;2023-04-10T00:21:22;102031.06;;;9.18;61.98
3294;BME280;1659;51.470;6.770;2023-04-10T00:23:49;102024.88;;;9.19;61.69
3294;BME280;1659;51.470;6.770;2023-04-10T00:26:17;102027.53;;;9.20;61.66
3294;BME280;1659;51.470;6.770;2023-04-10T00:28:45;102015.25;;;9.19;61.74
3294;BME280;1659;51.470;6.770;2023-04-10T00:31:11;102022.28;;;9.22;61.92
3294;BME280;1659;51.470;6.770;2023-04-10T00:33:38;102019.66;;;9.23;61.65
3294;BME280;1659;51.470;6.770;2023-04-10T00:36:05;102013.53;;;9.24;61.48
3294;BME280;1659;51.470;6.770;2023-04-10T00:38:31;102019.66;;;9.23;61.65
3294;BME280;1659;51.470;6.770;2023-04-10T00:40:58;102011.75;;;9.23;61.94
3294;BME280;1659;51.470;6.770;2023-04-10T00:43:26;102019.66;;;9.22;61.56
3294;BME280;1659;51.470;6.770;2023-04-10T00:45:52;102010.84;;;9.20;61.59
3294;BME280;1659;51.470;6.770;2023-04-10T00:48:19;102013.50;;;9.21;61.64
3294;BME280;1659;51.470;6.770;2023-04-10T00:50:46;102010.84;;;9.21;61.62
3294;BME280;1659;51.470;6.770;2023-04-10T00:53:12;102016.13;;;9.20;61.52
3294;BME280;1659;51.470;6.770;2023-04-10T00:55:39;102013.47;;;9.20;61.54
3294;BME280;1659;51.470;6.770;2023-04-10T00:58:06;102009.06;;;9.20;61.05
3294;BME280;1659;51.470;6.770;2023-04-10T01:00:34;102006.44;;;9.20;61.26
3294;BME280;1659;51.470;6.770;2023-04-10T01:03:00;102005.56;;;9.20;61.06
3294;BME280;1659;51.470;6.770;2023-04-10T01:05:33;102002.94;;;9.21;61.27
3294;BME280;1659;51.470;6.770;2023-04-10T01:08:07;102001.16;;;9.20;61.37
3294;BME280;1659;51.470;6.770;2023-04-10T01:10:42;101997.66;;;9.20;61.39
3294;BME280;1659;51.470;6.770;2023-04-10T01:13:15;101996.78;;;9.19;61.09
3294;BME280;1659;51.470;6.770;2023-04-10T01:15:52;101994.16;;;9.19;61.00
3294;BME280;1659;51.470;6.770;2023-04-10T01:18:25;101981.81;;;9.20;60.99
3294;BME280;1659;51.470;6.770;2023-04-10T01:20:55;101986.22;;;9.19;60.94
3294;BME280;1659;51.470;6.770;2023-04-10T01:23:40;101989.72;;;9.18;60.88
3294;BME280;1659;51.470;6.770;2023-04-10T01:26:09;101981.81;;;9.17;61.12
3294;BME280;1659;51.470;6.770;2023-04-10T01:28:53;101980.06;;;9.16;61.09
3294;BME280;1659;51.470;6.770;2023-04-10T01:31:28;101965.94;;;9.14;60.90
3294;BME280;1659;51.470;6.770;2023-04-10T01:33:59;101965.97;;;9.15;60.97
3294;BME280;1659;51.470;6.770;2023-04-10T01:36:32;101958.06;;;9.17;61.06
3294;BME280;1659;51.470;6.770;2023-04-10T01:39:01;101960.75;;;9.21;60.70
3294;BME280;1659;51.470;6.770;2023-04-10T01:41:29;101956.34;;;9.22;60.59
3294;BME280;1659;51.470;6.770;2023-04-10T01:43:58;101956.34;;;9.23;60.78
3294;BME280;1659;51.470;6.770;2023-04-10T01:46:28;101958.13;;;9.27;60.45
3294;BME280;1659;51.470;6.770;2023-04-10T01:48:55;101952.84;;;9.27;60.65
3294;BME280;1659;51.470;6.770;2023-04-10T01:51:24;101952.84;;;9.27;60.38
3294;BME280;1659;51.470;6.770;2023-04-10T01:53:52;101958.13;;;9.27;60.50
3294;BME280;1659;51.470;6.770;2023-04-10T01:56:19;101958.13;;;9.29;60.45
3294;BME280;1659;51.470;6.770;2023-04-10T01:58:46;101955.50;;;9.27;60.71
3294;BME280;1659;51.470;6.770;2023-04-10T02:01:18;101965.16;;;9.25;60.60
3294;BME280;1659;51.470;6.770;2023-04-10T02:03:46;101948.44;;;9.23;61.00
3294;BME280;1659;51.470;6.770;2023-04-10T02:06:14;101952.84;;;9.23;60.83
3294;BME280;1659;51.470;6.770;2023-04-10T02:08:50;101955.47;;;9.21;60.97
3294;BME280;1659;51.470;6.770;2023-04-10T02:11:26;101944.91;;;9.18;60.79
3294;BME280;1659;51.470;6.770;2023-04-10T02:13:59;101939.59;;;9.15;60.91
3294;BME280;1659;51.470;6.770;2023-04-10T02:16:30;101944.00;;;9.15;61.18
3294;BME280;1659;51.470;6.770;2023-04-10T02:18:59;101936.06;;;9.13;60.95
3294;BME280;1659;51.470;6.770;2023-04-10T02:21:26;101935.19;;;9.13;60.88
3294;BME280;1659;51.470;6.770;2023-04-10T02:23:55;101940.44;;;9.10;61.34
3294;BME280;1659;51.470;6.770;2023-04-10T02:26:22;101936.94;;;9.07;61.44
3294;BME280;1659;51.470;6.770;2023-04-10T02:28:48;101935.16;;;9.06;61.60
3294;BME280;1659;51.470;6.770;2023-04-10T02:31:15;101934.28;;;9.06;61.20
3294;BME280;1659;51.470;6.770;2023-04-10T02:33:43;101940.41;;;9.03;61.40
3294;BME280;1659;51.470;6.770;2023-04-10T02:36:10;101939.50;;;9.01;61.35
3294;BME280;1659;51.470;6.770;2023-04-10T02:38:36;101932.47;;;8.99;61.93
3294;BME280;1659;51.470;6.770;2023-04-10T02:41:03;101943.03;;;9.00;61.65
3294;BME280;1659;51.470;6.770;2023-04-10T02:43:30;101936.84;;;9.00;61.72
3294;BME280;1659;51.470;6.770;2023-04-10T02:45:57;101938.59;;;8.96;61.77
3294;BME280;1659;51.470;6.770;2023-04-10T02:48:24;101934.22;;;8.98;61.61
3294;BME280;1659;51.470;6.770;2023-04-10T02:50:56;101935.09;;;8.96;61.78
3294;BME280;1659;51.470;6.770;2023-04-10T02:53:22;101937.72;;;8.96;61.63
3294;BME280;1659;51.470;6.770;2023-04-10T02:55:51;101935.06;;;8.93;61.94
3294;BME280;1659;51.470;6.770;2023-04-10T02:58:18;101931.53;;;8.91;61.86
3294;BME280;1659;51.470;6.770;2023-04-10T03:00:47;101931.50;;;8.87;62.09
3294;BME280;1659;51.470;6.770;2023-04-10T03:03:14;101928.88;;;8.86;62.13
3294;BME280;1659;51.470;6.770;2023-04-10T03:05:40;101930.59;;;8.85;61.98
3294;BME280;1659;51.470;6.770;2023-04-10T03:08:08;101927.13;;;8.86;61.92
3294;BME280;1659;51.470;6.770;2023-04-10T03:10:35;101920.09;;;8.87;62.32
3294;BME280;1659;51.470;6.770;2023-04-10T03:13:01;101911.31;;;8.86;61.89
3294;BME280;1659;51.470;6.770;2023-04-10T03:15:28;101906.88;;;8.82;61.98
3294;BME280;1659;51.470;6.770;2023-04-10T03:17:54;101909.50;;;8.82;62.10
3294;BME280;1659;51.470;6.770;2023-04-10T03:20:21;101901.59;;;8.82;62.20
3294;BME280;1659;51.470;6.770;2023-04-10T03:22:47;101898.06;;;8.80;62.61
3294;BME280;1659;51.470;6.770;2023-04-10T03:25:16;101900.69;;;8.79;62.20
3294;BME280;1659;51.470;6.770;2023-04-10T03:27:43;101898.06;;;8.79;62.33
3294;BME280;1659;51.470;6.770;2023-04-10T03:30:10;101895.44;;;8.77;62.75
3294;BME280;1659;51.470;6.770;2023-04-10T03:32:36;101885.75;;;8.78;62.10
3294;BME280;1659;51.470;6.770;2023-04-10T03:35:07;101891.91;;;8.78;62.44
3294;BME280;1659;51.470;6.770;2023-04-10T03:37:33;101890.16;;;8.77;62.52
3294;BME280;1659;51.470;6.770;2023-04-10T03:40:00;101885.75;;;8.76;62.41
3294;BME280;1659;51.470;6.770;2023-04-10T03:42:28;101882.22;;;8.74;62.24
3294;BME280;1659;51.470;6.770;2023-04-10T03:44:54;101879.56;;;8.73;62.37
3294;BME280;1659;51.470;6.770;2023-04-10T03:47:21;101863.75;;;8.69;62.67
3294;BME280;1659;51.470;6.770;2023-04-10T03:49:47;101868.97;;;8.66;62.61
3294;BME280;1659;51.470;6.770;2023-04-10T03:52:14;101878.63;;;8.63;62.69
3294;BME280;1659;51.470;6.770;2023-04-10T03:54:40;101874.22;;;8.59;62.81
3294;BME280;1659;51.470;6.770;2023-04-10T03:57:07;101871.50;;;8.53;63.26
3294;BME280;1659;51.470;6.770;2023-04-10T03:59:35;101869.75;;;8.48;63.07
3294;BME280;1659;51.470;6.770;2023-04-10T04:02:01;101871.50;;;8.46;63.44
3294;BME280;1659;51.470;6.770;2023-04-10T04:04:28;101874.09;;;8.43;63.23
3294;BME280;1659;51.470;6.770;2023-04-10T04:06:55;101871.41;;;8.39;63.69
3294;BME280;1659;51.470;6.770;2023-04-10T04:09:22;101869.63;;;8.36;63.35
3294;BME280;1659;51.470;6.770;2023-04-10T04:11:48;101870.47;;;8.35;63.62
3294;BME280;1659;51.470;6.770;2023-04-10T04:14:15;101868.69;;;8.31;63.71
3294;BME280;1659;51.470;6.770;2023-04-10T04:16:42;101866.06;;;8.31;63.93
3294;BME280;1659;51.470;6.770;2023-04-10T04:19:09;101865.16;;;8.29;63.98
3294;BME280;1659;51.470;6.770;2023-04-10T04:21:36;101860.75;;;8.26;63.77
3294;BME280;1659;51.470;6.770;2023-04-10T04:24:02;101862.50;;;8.27;63.38
3294;BME280;1659;51.470;6.770;2023-04-10T04:26:29;101866.00;;;8.26;63.99
3294;BME280;1659;51.470;6.770;2023-04-10T04:28:56;101869.53;;;8.27;63.82
3294;BME280;1659;51.470;6.770;2023-04-10T04:31:22;101864.28;;;8.27;63.69
3294;BME280;1659;51.470;6.770;2023-04-10T04:33:50;101862.50;;;8.26;63.73
3294;BME280;1659;51.470;6.770;2023-04-10T04:36:17;101857.25;;;8.27;63.90
3294;BME280;1659;51.470;6.770;2023-04-10T04:38:43;101858.13;;;8.28;63.76
3294;BME280;1659;51.470;6.770;2023-04-10T04:41:10;101853.75;;;8.28;63.81
3294;BME280;1659;51.470;6.770;2023-04-10T04:43:36;101845.88;;;8.30;63.28
3294;BME280;1659;51.470;6.770;2023-04-10T04:46:03;101858.16;;;8.31;63.27
3294;BME280;1659;51.470;6.770;2023-04-10T04:48:30;101845.00;;;8.31;63.59
3294;BME280;1659;51.470;6.770;2023-04-10T04:50:58;101851.13;;;8.31;63.61
3294;BME280;1659;51.470;6.770;2023-04-10T04:53:24;101839.69;;;8.28;63.34
3294;BME280;1659;51.470;6.770;2023-04-10T04:55:51;101849.38;;;8.30;63.66
3294;BME280;1659;51.470;6.770;2023-04-10T04:58:17;101845.88;;;8.33;63.30
3294;BME280;1659;51.470;6.770;2023-04-10T05:00:44;101852.91;;;8.32;63.09
3294;BME280;1659;51.470;6.770;2023-04-10T05:03:11;101850.28;;;8.32;63.08
3294;BME280;1659;51.470;6.770;2023-04-10T05:05:37;101849.41;;;8.35;63.16
3294;BME280;1659;51.470;6.770;2023-04-10T05:08:05;101847.66;;;8.36;63.24
3294;BME280;1659;51.470;6.770;2023-04-10T05:10:32;101849.41;;;8.37;63.75
3294;BME280;1659;51.470;6.770;2023-04-10T05:12:58;101843.28;;;8.38;63.56
3294;BME280;1659;51.470;6.770;2023-04-10T05:15:25;101844.19;;;8.41;63.37
3294;BME280;1659;51.470;6.770;2023-04-10T05:17:51;101846.88;;;8.43;63.70
3294;BME280;1659;51.470;6.770;2023-04-10T05:20:18;101846.91;;;8.46;63.15
3294;BME280;1659;51.470;6.770;2023-04-10T05:22:45;101853.06;;;8.53;63.05
3294;BME280;1659;51.470;6.770;2023-04-10T05:25:13;101844.34;;;8.61;62.97
3294;BME280;1659;51.470;6.770;2023-04-10T05:27:40;101862.84;;;8.67;62.36
3294;BME280;1659;51.470;6.770;2023-04-10T05:30:08;101847.09;;;8.77;62.07
3294;BME280;1659;51.470;6.770;2023-04-10T05:32:34;101841.00;;;8.85;61.76
3294;BME280;1659;51.470;6.770;2023-04-10T05:35:01;101848.94;;;8.96;61.65
3294;BME280;1659;51.470;6.770;2023-04-10T05:37:27;101845.47;;;9.00;61.41
3294;BME280;1659;51.470;6.770;2023-04-10T05:39:54;101833.22;;;9.07;61.68
3294;BME280;1659;51.470;6.770;2023-04-10T05:42:22;101840.25;;;9.13;61.11
3294;BME280;1659;51.470;6.770;2023-04-10T05:44:48;101837.66;;;9.20;61.21
3294;BME280;1659;51.470;6.770;2023-04-10T05:47:15;101835.94;;;9.29;61.13
3294;BME280;1659;51.470;6.770;2023-04-10T05:49:41;101839.47;;;9.37;60.78
3294;BME280;1659;51.470;6.770;2023-04-10T05:52:08;101835.09;;;9.48;60.67
3294;BME280;1659;51.470;6.770;2023-04-10T05:54:35;101843.94;;;9.58;60.11
3294;BME280;1659;51.470;6.770;2023-04-10T05:57:01;101838.69;;;9.67;60.08
3294;BME280;1659;51.470;6.770;2023-04-10T05:59:29;101832.53;;;9.77;59.88
3294;BME280;1659;51.470;6.770;2023-04-10T06:01:56;101843.13;;;9.88;59.01
3294;BME280;1659;51.470;6.770;2023-04-10T06:04:22;101827.28;;;9.97;59.08
3294;BME280;1659;51.470;6.770;2023-04-10T06:06:49;101826.41;;;10.08;58.42
3294;BME280;1659;51.470;6.770;2023-04-10T06:09:15;101817.59;;;10.16;58.11
3294;BME280;1659;51.470;6.770;2023-04-10T06:11:42;101814.94;;;10.30;57.99
3294;BME280;1659;51.470;6.770;2023-04-10T06:14:08;101814.97;;;10.41;58.05
3294;BME280;1659;51.470;6.770;2023-04-10T06:16:36;101821.13;;;10.51;57.35
3294;BME280;1659;51.470;6.770;2023-04-10T06:19:03;101820.25;;;10.61;56.68
3294;BME280;1659;51.470;6.770;2023-04-10T06:21:29;101816.69;;;10.73;56.42
3294;BME280;1659;51.470;6.770;2023-04-10T06:23:56;101819.28;;;10.91;56.12
3294;BME280;1659;51.470;6.770;2023-04-10T06:26:23;101821.84;;;11.11;55.13
3294;BME280;1659;51.470;6.770;2023-04-10T06:28:50;101824.34;;;11.42;54.54
3294;BME280;1659;51.470;6.770;2023-04-10T06:31:18;101825.88;;;11.79;53.14
3294;BME280;1659;51.470;6.770;2023-04-10T06:33:47;101822.97;;;12.20;52.12
3294;BME280;1659;51.470;6.770;2023-04-10T06:36:14;101819.13;;;12.52;51.27
3294;BME280;1659;51.470;6.770;2023-04-10T06:38:41;101810.06;;;12.75;50.59
3294;BME280;1659;51.470;6.770;2023-04-10T06:41:07;101808.78;;;13.07;49.78
3294;BME280;1659;51.470;6.770;2023-04-10T06:43:35;101796.03;;;13.36;48.84
3294;BME280;1659;51.470;6.770;2023-04-10T06:46:02;101801.16;;;13.52;47.63
3294;BME280;1659;51.470;6.770;2023-04-10T06:48:29;101799.06;;;13.72;47.37
3294;BME280;1659;51.470;6.770;2023-04-10T06:50:57;101788.19;;;13.91;46.93
3294;BME280;1659;51.470;6.770;2023-04-10T06:53:24;101803.09;;;13.98;46.81
3294;BME280;1659;51.470;6.770;2023-04-10T06:55:51;101798.63;;;14.02;46.42
3294;BME280;1659;51.470;6.770;2023-04-10T06:58:17;101781.06;;;13.91;46.58
3294;BME280;1659;51.470;6.770;2023-04-10T07:00:45;101786.69;;;13.70;46.23
3294;BME280;1659;51.470;6.770;2023-04-10T07:03:11;101775.63;;;13.41;46.40
3294;BME280;1659;51.470;6.770;2023-04-10T07:05:38;101764.06;;;13.47;46.76
3294;BME280;1659;51.470;6.770;2023-04-10T07:08:06;101762.88;;;13.65;46.70
3294;BME280;1659;51.470;6.770;2023-04-10T07:10:33;101769.06;;;13.66;46.02
3294;BME280;1659;51.470;6.770;2023-04-10T07:13:00;101760.63;;;13.95;45.76
3294;BME280;1659;51.470;6.770;2023-04-10T07:15:26;101776.16;;;14.20;44.98
3294;BME280;1659;51.470;6.770;2023-04-10T07:17:53;101767.69;;;14.46;44.49
3294;BME280;1659;51.470;6.770;2023-04-10T07:20:20;101756.06;;;14.51;44.31
3294;BME280;1659;51.470;6.770;2023-04-10T07:22:47;101765.19;;;14.38;44.38
3294;BME280;1659;51.470;6.770;2023-04-10T07:25:14;101762.72;;;14.27;44.17
3294;BME280;1659;51.470;6.770;2023-04-10T07:27:42;101759.88;;;14.38;44.60
3294;BME280;1659;51.470;6.770;2023-04-10T07:30:10;101757.28;;;14.35;44.53
3294;BME280;1659;51.470;6.770;2023-04-10T07:32:36;101763.47;;;14.34;44.58
3294;BME280;1659;51.470;6.770;2023-04-10T07:35:05;101752.03;;;14.30;44.63
3294;BME280;1659;51.470;6.770;2023-04-10T07:37:31;101761.03;;;14.22;44.74
3294;BME280;1659;51.470;6.770;2023-04-10T07:39:58;101749.00;;;14.01;44.30
3294;BME280;1659;51.470;6.770;2023-04-10T07:42:26;101746.53;;;13.90;44.53
3294;BME280;1659;51.470;6.770;2023-04-10T07:44:52;101741.84;;;14.06;44.99
3294;BME280;1659;51.470;6.770;2023-04-10T07:47:19;101735.25;;;14.27;44.43
3294;BME280;1659;51.470;6.770;2023-04-10T07:49:45;101726.94;;;14.45;43.71
3294;BME280;1659;51.470;6.770;2023-04-10T07:52:12;101725.34;;;14.82;43.46
3294;BME280;1659;51.470;6.770;2023-04-10T07:54:39;101721.75;;;15.23;43.04
3294;BME280;1659;51.470;6.770;2023-04-10T07:57:05;101714.03;;;15.52;42.30
3294;BME280;1659;51.470;6.770;2023-04-10T07:59:33;101691.16;;;15.79;41.75
3294;BME280;1659;51.470;6.770;2023-04-10T08:02:00;101697.59;;;16.04;41.17
3294;BME280;1659;51.470;6.770;2023-04-10T08:04:26;101691.84;;;16.20;40.85
3294;BME280;1659;51.470;6.770;2023-04-10T08:06:53;101691.91;;;16.18;40.65
3294;BME280;1659;51.470;6.770;2023-04-10T08:09:19;101694.63;;;16.48;40.34
3294;BME280;1659;51.470;6.770;2023-04-10T08:11:46;101686.25;;;16.60;40.30
3294;BME280;1659;51.470;6.770;2023-04-10T08:14:13;101676.84;;;16.47;39.96
3294;BME280;1659;51.470;6.770;2023-04-10T08:16:41;101674.03;;;16.53;39.88
3294;BME280;1659;51.470;6.770;2023-04-10T08:19:07;101685.13;;;16.69;39.95
3294;BME280;1659;51.470;6.770;2023-04-10T08:21:34;101683.19;;;16.74;39.33
3294;BME280;1659;51.470;6.770;2023-04-10T08:24:02;101669.88;;;16.73;39.35
3294;BME280;1659;51.470;6.770;2023-04-10T08:26:29;101663.59;;;16.74;39.28
3294;BME280;1659;51.470;6.770;2023-04-10T08:28:56;101672.44;;;16.77;39.15
3294;BME280;1659;51.470;6.770;2023-04-10T08:31:24;101658.25;;;16.74;39.08
3294;BME280;1659;51.470;6.770;2023-04-10T08:33:53;101673.13;;;16.83;39.19
3294;BME280;1659;51.470;6.770;2023-04-10T08:36:20;101653.63;;;17.10;39.15
3294;BME280;1659;51.470;6.770;2023-04-10T08:38:46;101663.34;;;17.13;39.05
3294;BME280;1659;51.470;6.770;2023-04-10T08:41:14;101650.50;;;16.96;39.20
3294;BME280;1659;51.470;6.770;2023-04-10T08:43:41;101661.63;;;16.80;38.95
3294;BME280;1659;51.470;6.770;2023-04-10T08:46:09;101634.78;;;16.57;39.09
3294;BME280;1659;51.470;6.770;2023-04-10T08:48:38;101644.78;;;16.49;39.19
3294;BME280;1659;51.470;6.770;2023-04-10T08:51:13;101629.06;;;16.39;39.76
3294;BME280;1659;51.470;6.770;2023-04-10T08:53:42;101635.47;;;16.34;39.93
3294;BME280;1659;51.470;6.770;2023-04-10T08:56:11;101664.81;;;16.34;39.54
3294;BME280;1659;51.470;6.770;2023-04-10T08:58:38;101642.25;;;16.13;39.50
3294;BME280;1659;51.470;6.770;2023-04-10T09:01:05;101623.06;;;16.00;39.72
3294;BME280;1659;51.470;6.770;2023-04-10T09:03:32;101619.94;;;15.84;40.24
3294;BME280;1659;51.470;6.770;2023-04-10T09:06:01;101625.34;;;15.81;40.47
3294;BME280;1659;51.470;6.770;2023-04-10T09:08:29;101628.03;;;15.81;40.37
3294;BME280;1659;51.470;6.770;2023-04-10T09:10:55;101613.19;;;16.03;40.41
3294;BME280;1659;51.470;6.770;2023-04-10T09:13:34;101616.13;;;16.55;39.93
3294;BME280;1659;51.470;6.770;2023-04-10T09:16:02;101615.28;;;16.85;39.49
3294;BME280;1659;51.470;6.770;2023-04-10T09:18:45;101627.34;;;17.25;38.88
3294;BME280;1659;51.470;6.770;2023-04-10T09:21:14;101631.69;;;17.54;38.49
3294;BME280;1659;51.470;6.770;2023-04-10T09:23:43;101617.31;;;17.83;38.53
3294;BME280;1659;51.470;6.770;2023-04-10T09:26:27;101633.06;;;18.18;38.57
3294;BME280;1659;51.470;6.770;2023-04-10T09:28:58;101622.88;;;18.27;38.21
3294;BME280;1659;51.470;6.770;2023-04-10T09:31:27;101637.47;;;18.19;37.92
3294;BME280;1659;51.470;6.770;2023-04-10T09:34:06;101627.25;;;17.80;36.94
3294;BME280;1659;51.470;6.770;2023-04-10T09:36:32;101620.38;;;17.47;37.37
3294;BME280;1659;51.470;6.770;2023-04-10T09:39:00;101601.34;;;17.57;38.01
3294;BME280;1659;51.470;6.770;2023-04-10T09:41:27;101596.00;;;17.82;38.41
3294;BME280;1659;51.470;6.770;2023-04-10T09:44:05;101600.13;;;17.92;37.42
3294;BME280;1659;51.470;6.770;2023-04-10T09:46:32;101604.53;;;17.66;37.86
3294;BME280;1659;51.470;6.770;2023-04-10T09:48:59;101600.81;;;17.45;37.83
3294;BME280;1659;51.470;6.770;2023-04-10T09:51:30;101595.66;;;17.41;38.07
3294;BME280;1659;51.470;6.770;2023-04-10T09:53:58;101588.56;;;17.40;38.09
3294;BME280;1659;51.470;6.770;2023-04-10T09:56:27;101591.88;;;17.46;38.06
3294;BME280;1659;51.470;6.770;2023-04-10T09:58:56;101584.16;;;17.64;38.61
3294;BME280;1659;51.470;6.770;2023-04-10T10:01:25;101582.44;;;17.88;38.42
3294;BME280;1659;51.470;6.770;2023-04-10T10:03:53;101590.47;;;17.88;38.17
3294;BME280;1659;51.470;6.770;2023-04-10T10:06:20;101590.38;;;17.64;37.67
3294;BME280;1659;51.470;6.770;2023-04-10T10:08:48;101569.84;;;17.40;37.69
3294;BME280;1659;51.470;6.770;2023-04-10T10:11:17;101568.00;;;17.15;37.96
3294;BME280;1659;51.470;6.770;2023-04-10T10:13:49;101569.59;;;17.21;38.36
3294;BME280;1659;51.470;6.770;2023-04-10T10:16:20;101570.13;;;17.32;38.25
3294;BME280;1659;51.470;6.770;2023-04-10T10:18:53;101550.66;;;17.53;37.60
3294;BME280;1659;51.470;6.770;2023-04-10T10:21:21;101554.31;;;17.76;37.76
3294;BME280;1659;51.470;6.770;2023-04-10T10:23:49;101548.91;;;18.03;37.77
3294;BME280;1659;51.470;6.770;2023-04-10T10:26:19;101548.16;;;18.23;37.24
3294;BME280;1659;51.470;6.770;2023-04-10T10:28:49;101536.44;;;18.49;37.66
3294;BME280;1659;51.470;6.770;2023-04-10T10:31:17;101518.81;;;18.65;36.53
3294;BME280;1659;51.470;6.770;2023-04-10T10:33:44;101547.25;;;18.46;36.85
3294;BME280;1659;51.470;6.770;2023-04-10T10:36:12;101515.69;;;18.32;36.54
3294;BME280;1659;51.470;6.770;2023-04-10T10:38:52;101491.22;;;18.19;36.92
3294;BME280;1659;51.470;6.770;2023-04-10T10:41:27;101513.25;;;18.26;36.52
3294;BME280;1659;51.470;6.770;2023-04-10T10:44:06;101489.03;;;18.07;35.67
3294;BME280;1659;51.470;6.770;2023-04-10T10:46:37;101485.06;;;17.93;36.14
3294;BME280;1659;51.470;6.770;2023-04-10T10:55:27;101468.41;;;17.62;36.01
3294;BME280;1659;51.470;6.770;2023-04-10T10:57:57;101482.94;;;17.54;36.01
3294;BME280;1659;51.470;6.770;2023-04-10T11:00:26;101477.03;;;17.45;36.18
3294;BME280;1659;51.470;6.770;2023-04-10T11:03:26;101463.69;;;17.45;36.27
3294;BME280;1659;51.470;6.770;2023-04-10T11:05:54;101466.25;;;17.48;36.39
3294;BME280;1659;51.470;6.770;2023-04-10T11:08:34;101462.88;;;17.43;36.05
3294;BME280;1659;51.470;6.770;2023-04-10T11:11:04;101462.00;;;17.42;36.45
3294;BME280;1659;51.470;6.770;2023-04-10T11:13:31;101471.53;;;17.49;36.62
3294;BME280;1659;51.470;6.770;2023-04-10T11:19:03;101443.56;;;17.60;36.00
3294;BME280;1659;51.470;6.770;2023-04-10T11:21:32;101460.00;;;17.72;35.97
3294;BME280;1659;51.470;6.770;2023-04-10T11:24:03;101428.78;;;17.73;35.73
3294;BME280;1659;51.470;6.770;2023-04-10T11:26:39;101436.75;;;17.74;35.66
3294;BME280;1659;51.470;6.770;2023-04-10T11:29:32;101429.41;;;17.80;35.71
3294;BME280;1659;51.470;6.770;2023-04-10T11:32:01;101422.03;;;17.88;35.91
3294;BME280;1659;51.470;6.770;2023-04-10T11:34:29;101417.41;;;17.91;35.67
3294;BME280;1659;51.470;6.770;2023-04-10T11:36:57;101420.16;;;17.90;35.23
3294;BME280;1659;51.470;6.770;2023-04-10T11:39:25;101405.16;;;17.86;35.51
3294;BME280;1659;51.470;6.770;2023-04-10T11:41:53;101394.09;;;17.95;35.51
3294;BME280;1659;51.470;6.770;2023-04-10T11:44:27;101388.66;;;17.98;35.40
3294;BME280;1659;51.470;6.770;2023-04-10T11:46:53;101396.16;;;18.10;35.34
3294;BME280;1659;51.470;6.770;2023-04-10T11:49:22;101394.59;;;18.05;34.93
3294;BME280;1659;51.470;6.770;2023-04-10T11:51:51;101394.34;;;17.89;34.51
3294;BME280;1659;51.470;6.770;2023-04-10T11:54:19;101405.72;;;17.70;34.64
3294;BME280;1659;51.470;6.770;2023-04-10T11:56:56;101382.69;;;17.66;34.81
3294;BME280;1659;51.470;6.770;2023-04-10T11:59:24;101380.50;;;17.78;35.28
3294;BME280;1659;51.470;6.770;2023-04-10T12:01:52;101390.41;;;17.98;35.31
3294;BME280;1659;51.470;6.770;2023-04-10T12:04:21;101360.28;;;18.16;34.91
3294;BME280;1659;51.470;6.770;2023-04-10T12:06:50;101354.66;;;18.22;34.84
3294;BME280;1659;51.470;6.770;2023-04-10T12:09:19;101366.31;;;18.21;34.07
3294;BME280;1659;51.470;6.770;2023-04-10T12:11:50;101367.09;;;18.23;34.34
3294;BME280;1659;51.470;6.770;2023-04-10T12:14:17;101347.38;;;18.26;34.61
3294;BME280;1659;51.470;6.770;2023-04-10T12:16:45;101338.75;;;18.40;34.60
3294;BME280;1659;51.470;6.770;2023-04-10T12:19:13;101335.66;;;18.51;34.29
3294;BME280;1659;51.470;6.770;2023-04-10T12:21:40;101336.50;;;18.51;34.47
3294;BME280;1659;51.470;6.770;2023-04-10T12:24:09;101346.03;;;18.58;34.42
3294;BME280;1659;51.470;6.770;2023-04-10T12:26:35;101328.59;;;18.48;33.95
3294;BME280;1659;51.470;6.770;2023-04-10T12:29:02;101311.34;;;18.55;34.15
3294;BME280;1659;51.470;6.770;2023-04-10T12:31:32;101317.72;;;18.73;34.05
3294;BME280;1659;51.470;6.770;2023-04-10T12:34:00;101308.44;;;18.82;33.80
3294;BME280;1659;51.470;6.770;2023-04-10T12:36:28;101308.34;;;18.83;33.91
3294;BME280;1659;51.470;6.770;2023-04-10T12:38:54;101324.34;;;18.85;34.07
3294;BME280;1659;51.470;6.770;2023-04-10T12:41:24;101317.38;;;18.81;33.67
3294;BME280;1659;51.470;6.770;2023-04-10T12:43:51;101300.13;;;18.88;33.35
3294;BME280;1659;51.470;6.770;2023-04-10T12:46:22;101294.72;;;19.09;32.72
3294;BME280;1659;51.470;6.770;2023-04-10T12:48:49;101301.25;;;19.22;33.24
3294;BME280;1659;51.470;6.770;2023-04-10T12:51:16;101294.22;;;19.19;32.66
3294;BME280;1659;51.470;6.770;2023-04-10T12:53:43;101286.69;;;19.09;32.96
3294;BME280;1659;51.470;6.770;2023-04-10T12:56:10;101289.81;;;18.99;33.55
3294;BME280;1659;51.470;6.770;2023-04-10T12:58:39;101293.28;;;19.01;33.93
3294;BME280;1659;51.470;6.770;2023-04-10T13:01:07;101303.03;;;19.02;33.99
3294;BME280;1659;51.470;6.770;2023-04-10T13:03:35;101274.94;;;18.92;33.87
3294;BME280;1659;51.470;6.770;2023-04-10T13:06:02;101278.50;;;18.72;33.84
3294;BME280;1659;51.470;6.770;2023-04-10T13:08:28;101276.28;;;18.61;33.89
3294;BME280;1659;51.470;6.770;2023-04-10T13:10:56;101265.41;;;18.45;34.11
3294;BME280;1659;51.470;6.770;2023-04-10T13:13:27;101272.88;;;18.37;34.36
3294;BME280;1659;51.470;6.770;2023-04-10T13:15:55;101260.78;;;18.28;34.40
3294;BME280;1659;51.470;6.770;2023-04-10T13:18:22;101265.03;;;18.33;34.65
3294;BME280;1659;51.470;6.770;2023-04-10T13:20:49;101259.19;;;18.24;34.75
3294;BME280;1659;51.470;6.770;2023-04-10T13:23:16;101254.41;;;18.10;34.30
3294;BME280;1659;51.470;6.770;2023-04-10T13:25:42;101259.31;;;17.99;34.80
3294;BME280;1659;51.470;6.770;2023-04-10T13:28:09;101221.50;;;17.88;34.64
3294;BME280;1659;51.470;6.770;2023-04-10T13:30:37;101235.13;;;17.80;34.76